Time,TemperatureF,DewpointF,PressureIn,WindDirection,WindDirectionDegrees,WindSpeedMPH,WindSpeedGustMPH,Humidity,HourlyPrecipIn,Conditions,Clouds,dailyrainin,SoftwareType,DateUTC
2013-05-14 00:12:00,37.1,31.0,30.11,NNE,17,0.0,1.0,80,0.00,,,0.00,weatherlink.com 1.10,2013-05-14 04:12:00,
2013-05-14 00:25:00,36.4,31.0,30.11,NNE,17,0.0,0.0,82,0.00,,,0.00,weatherlink.com 1.10,2013-05-14 04:25:00,
2013-05-14 00:39:00,35.8,31.0,30.11,NE,51,1.0,2.0,84,0.00,,,0.00,weatherlink.com 1.10,2013-05-14 04:39:00,
2013-05-14 00:55:00,37.0,32.0,30.10,NW,323,0.0,6.0,81,0.00,,,0.00,weatherlink.com 1.10,2013-05-14 04:55:00,
2013-05-14 01:12:00,37.7,32.0,30.10,NNE,30,0.0,4.0,79,0.00,,,0.00,weatherlink.com 1.10,2013-05-14 05:12:00,
2013-05-14 01:25:00,37.2,31.0,30.10,NNE,21,0.0,3.0,79,0.00,,,0.00,weatherlink.com 1.10,2013-05-14 05:25:00,
2013-05-14 01:42:00,36.6,31.0,30.10,NNE,19,0.0,3.0,81,0.00,,,0.00,weatherlink.com 1.10,2013-05-14 05:42:00,
2013-05-14 01:55:00,36.2,31.0,30.10,NNE,19,0.0,1.0,81,0.00,,,0.00,weatherlink.com 1.10,2013-05-14 05:55:00,
2013-05-14 02:12:00,35.1,31.0,30.10,NNE,20,0.0,1.0,84,0.00,,,0.00,weatherlink.com 1.10,2013-05-14 06:12:00,
2013-05-14 02:26:00,34.6,31.0,30.10,North,355,0.0,3.0,85,0.00,,,0.00,weatherlink.com 1.10,2013-05-14 06:26:00,
2013-05-14 02:42:00,35.4,31.0,30.10,SSE,157,0.0,3.0,85,0.00,,,0.00,weatherlink.com 1.10,2013-05-14 06:42:00,
2013-05-14 02:56:00,36.2,32.0,30.10,NE,43,0.0,5.0,84,0.00,,,0.00,weatherlink.com 1.10,2013-05-14 06:56:00,
2013-05-14 03:12:00,37.3,32.0,30.10,ENE,57,0.0,3.0,82,0.00,,,0.00,weatherlink.com 1.10,2013-05-14 07:12:00,
2013-05-14 03:26:00,38.2,33.0,30.10,NNE,30,3.0,4.0,80,0.00,,,0.00,weatherlink.com 1.10,2013-05-14 07:26:00,
2013-05-14 03:42:00,38.7,33.0,30.11,South,178,1.0,3.0,79,0.00,,,0.00,weatherlink.com 1.10,2013-05-14 07:42:00,
2013-05-14 03:56:00,39.0,33.0,30.11,North,360,2.0,4.0,78,0.00,,,0.00,weatherlink.com 1.10,2013-05-14 07:56:00,
2013-05-14 04:12:00,39.2,33.0,30.11,North,350,0.0,3.0,78,0.00,,,0.00,weatherlink.com 1.10,2013-05-14 08:12:00,
2013-05-14 04:26:00,39.2,33.0,30.11,SE,138,0.0,4.0,79,0.00,,,0.00,weatherlink.com 1.10,2013-05-14 08:26:00,
2013-05-14 04:42:00,39.1,33.0,30.11,NE,41,0.0,4.0,78,0.00,,,0.00,weatherlink.com 1.10,2013-05-14 08:42:00,
2013-05-14 04:56:00,38.9,32.0,30.11,NNE,23,0.0,6.0,77,0.00,,,0.00,weatherlink.com 1.10,2013-05-14 08:56:00,
2013-05-14 05:12:00,38.5,32.0,30.11,NE,34,4.0,6.0,77,0.00,,,0.00,weatherlink.com 1.10,2013-05-14 09:12:00,
2013-05-14 05:27:00,37.9,32.0,30.11,NE,51,0.0,5.0,78,0.00,,,0.00,weatherlink.com 1.10,2013-05-14 09:27:00,
2013-05-14 05:42:00,37.5,31.0,30.12,NNW,337,2.0,4.0,78,0.00,,,0.00,weatherlink.com 1.10,2013-05-14 09:42:00,
2013-05-14 05:57:00,37.0,31.0,30.12,NE,44,0.0,2.0,79,0.00,,,0.00,weatherlink.com 1.10,2013-05-14 09:57:00,
2013-05-14 06:12:00,36.4,31.0,30.13,North,9,2.0,2.0,82,0.00,,,0.00,weatherlink.com 1.10,2013-05-14 10:12:00,
2013-05-14 06:27:00,36.0,31.0,30.13,NNE,15,2.0,4.0,83,0.00,,,0.00,weatherlink.com 1.10,2013-05-14 10:27:00,
2013-05-14 06:42:00,37.1,31.0,30.13,NE,41,1.0,6.0,80,0.00,,,0.00,weatherlink.com 1.10,2013-05-14 10:42:00,
2013-05-14 06:57:00,38.4,32.0,30.14,NE,40,0.0,5.0,77,0.00,,,0.00,weatherlink.com 1.10,2013-05-14 10:57:00,
2013-05-14 07:12:00,40.2,33.0,30.14,NNE,30,2.0,6.0,74,0.00,,,0.00,weatherlink.com 1.10,2013-05-14 11:12:00,
2013-05-14 07:28:00,41.4,32.0,30.14,North,11,1.0,4.0,70,0.00,,,0.00,weatherlink.com 1.10,2013-05-14 11:28:00,
2013-05-14 07:43:00,42.3,32.0,30.14,NE,42,0.0,6.0,68,0.00,,,0.00,weatherlink.com 1.10,2013-05-14 11:43:00,
2013-05-14 07:58:00,43.1,32.0,30.14,SW,224,4.0,5.0,65,0.00,,,0.00,weatherlink.com 1.10,2013-05-14 11:58:00,
2013-05-14 08:13:00,43.9,32.0,30.14,ENE,63,0.0,4.0,63,0.00,,,0.00,weatherlink.com 1.10,2013-05-14 12:13:00,
2013-05-14 08:28:00,45.2,32.0,30.14,SW,216,1.0,5.0,61,0.00,,,0.00,weatherlink.com 1.10,2013-05-14 12:28:00,
2013-05-14 08:43:00,45.9,30.0,30.14,ENE,57,2.0,11.0,55,0.00,,,0.00,weatherlink.com 1.10,2013-05-14 12:43:00,
2013-05-14 08:58:00,47.3,30.0,30.14,SSW,202,3.0,6.0,52,0.00,,,0.00,weatherlink.com 1.10,2013-05-14 12:58:00,
2013-05-14 09:14:00,48.2,31.0,30.13,North,5,2.0,5.0,51,0.00,,,0.00,weatherlink.com 1.10,2013-05-14 13:14:00,
2013-05-14 09:28:00,49.0,30.0,30.13,SSW,208,0.0,7.0,48,0.00,,,0.00,weatherlink.com 1.10,2013-05-14 13:28:00,
2013-05-14 09:44:00,49.9,30.0,30.13,SW,231,0.0,6.0,47,0.00,,,0.00,weatherlink.com 1.10,2013-05-14 13:44:00,
2013-05-14 09:59:00,50.5,30.0,30.12,WSW,241,0.0,7.0,45,0.00,,,0.00,weatherlink.com 1.10,2013-05-14 13:59:00,
2013-05-14 10:14:00,51.1,29.0,30.12,SW,224,2.0,7.0,42,0.00,,,0.00,weatherlink.com 1.10,2013-05-14 14:14:00,
2013-05-14 10:29:00,52.0,28.0,30.12,SW,232,1.0,5.0,39,0.00,,,0.00,weatherlink.com 1.10,2013-05-14 14:29:00,
2013-05-14 10:44:00,50.5,30.0,30.11,NNE,26,5.0,6.0,45,0.00,,,0.00,weatherlink.com 1.10,2013-05-14 14:44:00,
2013-05-14 10:59:00,50.5,30.0,30.11,NNE,24,0.0,7.0,45,0.00,,,0.00,weatherlink.com 1.10,2013-05-14 14:59:00,
2013-05-14 11:14:00,51.9,27.0,30.11,SW,224,0.0,6.0,39,0.00,,,0.00,weatherlink.com 1.10,2013-05-14 15:14:00,
2013-05-14 11:29:00,53.2,30.0,30.10,SSE,163,0.0,6.0,42,0.00,,,0.00,weatherlink.com 1.10,2013-05-14 15:29:00,
2013-05-14 11:44:00,54.9,29.0,30.10,SSW,194,1.0,7.0,37,0.00,,,0.00,weatherlink.com 1.10,2013-05-14 15:44:00,
2013-05-14 12:02:00,55.7,27.0,30.10,South,178,2.0,4.0,33,0.00,,,0.00,weatherlink.com 1.10,2013-05-14 16:02:00,
2013-05-14 12:15:00,56.1,28.0,30.10,South,190,0.0,6.0,34,0.00,,,0.00,weatherlink.com 1.10,2013-05-14 16:15:00,
2013-05-14 12:33:00,56.0,25.0,30.10,NE,51,2.0,6.0,30,0.00,,,0.00,weatherlink.com 1.10,2013-05-14 16:33:00,
2013-05-14 12:45:00,55.6,28.0,30.10,SSW,192,3.0,4.0,35,0.00,,,0.00,weatherlink.com 1.10,2013-05-14 16:45:00,
2013-05-14 13:00:00,57.4,30.0,30.09,NNW,336,3.0,5.0,36,0.00,,,0.00,weatherlink.com 1.10,2013-05-14 17:00:00,
2013-05-14 13:15:00,56.4,29.0,30.09,NNE,25,7.0,8.0,35,0.00,,,0.00,weatherlink.com 1.10,2013-05-14 17:15:00,
2013-05-14 13:32:00,55.0,28.0,30.09,NNE,32,3.0,9.0,36,0.00,,,0.00,weatherlink.com 1.10,2013-05-14 17:32:00,
2013-05-14 13:45:00,55.9,26.0,30.09,North,355,0.0,10.0,32,0.00,,,0.00,weatherlink.com 1.10,2013-05-14 17:45:00,
2013-05-14 14:02:00,56.9,29.0,30.08,SW,215,3.0,9.0,34,0.00,,,0.00,weatherlink.com 1.10,2013-05-14 18:02:00,
2013-05-14 14:15:00,56.0,27.0,30.08,NW,319,1.0,7.0,33,0.00,,,0.00,weatherlink.com 1.10,2013-05-14 18:15:00,
2013-05-14 14:32:00,57.4,32.0,30.07,SSW,198,2.0,8.0,38,0.00,,,0.00,weatherlink.com 1.10,2013-05-14 18:32:00,
2013-05-14 14:46:00,58.0,28.0,30.07,North,355,3.0,9.0,32,0.00,,,0.00,weatherlink.com 1.10,2013-05-14 18:46:00,
2013-05-14 15:02:00,56.6,26.0,30.07,WNW,299,2.0,8.0,31,0.00,,,0.00,weatherlink.com 1.10,2013-05-14 19:02:00,
2013-05-14 15:16:00,58.0,29.0,30.06,NNE,31,4.0,5.0,33,0.00,,,0.00,weatherlink.com 1.10,2013-05-14 19:16:00,
2013-05-14 15:32:00,57.4,26.0,30.06,ENE,76,0.0,10.0,30,0.00,,,0.00,weatherlink.com 1.10,2013-05-14 19:32:00,
2013-05-14 15:46:00,57.5,31.0,30.06,SSE,167,2.0,8.0,37,0.00,,,0.00,weatherlink.com 1.10,2013-05-14 19:46:00,
2013-05-14 16:02:00,57.5,26.0,30.05,North,351,2.0,9.0,30,0.00,,,0.00,weatherlink.com 1.10,2013-05-14 20:02:00,
2013-05-14 16:16:00,57.5,27.0,30.05,NE,36,2.0,8.0,31,0.00,,,0.00,weatherlink.com 1.10,2013-05-14 20:16:00,
2013-05-14 16:32:00,57.2,29.0,30.04,ENE,65,0.0,6.0,34,0.00,,,0.00,weatherlink.com 1.10,2013-05-14 20:32:00,
2013-05-14 16:46:00,57.5,28.0,30.04,SW,217,0.0,5.0,33,0.00,,,0.00,weatherlink.com 1.10,2013-05-14 20:46:00,
2013-05-14 17:02:00,57.4,28.0,30.04,South,181,4.0,7.0,32,0.00,,,0.00,weatherlink.com 1.10,2013-05-14 21:02:00,
2013-05-14 17:16:00,57.3,29.0,30.04,SSE,149,0.0,5.0,34,0.00,,,0.00,weatherlink.com 1.10,2013-05-14 21:16:00,
2013-05-14 17:32:00,56.5,28.0,30.04,ENE,66,1.0,4.0,34,0.00,,,0.00,weatherlink.com 1.10,2013-05-14 21:32:00,
2013-05-14 17:47:00,55.7,29.0,30.04,NNE,23,1.0,9.0,36,0.00,,,0.00,weatherlink.com 1.10,2013-05-14 21:47:00,
2013-05-14 18:02:00,55.7,28.0,30.04,ENE,59,0.0,8.0,35,0.00,,,0.00,weatherlink.com 1.10,2013-05-14 22:02:00,
2013-05-14 18:17:00,55.3,29.0,30.03,NE,53,0.0,5.0,36,0.00,,,0.00,weatherlink.com 1.10,2013-05-14 22:17:00,
2013-05-14 18:33:00,54.8,29.0,30.04,NW,313,0.0,5.0,37,0.00,,,0.00,weatherlink.com 1.10,2013-05-14 22:33:00,
2013-05-14 18:47:00,54.4,30.0,30.04,NE,50,1.0,5.0,39,0.00,,,0.00,weatherlink.com 1.10,2013-05-14 22:47:00,
2013-05-14 19:02:00,53.8,30.0,30.04,NW,326,3.0,5.0,41,0.00,,,0.00,weatherlink.com 1.10,2013-05-14 23:02:00,
2013-05-14 19:17:00,53.4,29.0,30.04,NE,40,0.0,1.0,39,0.00,,,0.00,weatherlink.com 1.10,2013-05-14 23:17:00,
2013-05-14 19:32:00,52.7,30.0,30.04,NE,42,2.0,2.0,42,0.00,,,0.00,weatherlink.com 1.10,2013-05-14 23:32:00,
2013-05-14 19:47:00,51.8,30.0,30.04,NE,42,0.0,2.0,43,0.00,,,0.00,weatherlink.com 1.10,2013-05-14 23:47:00,
2013-05-14 20:03:00,50.0,32.0,30.05,NE,34,0.0,3.0,50,0.00,,,0.00,weatherlink.com 1.10,2013-05-15 00:03:00,
2013-05-14 20:18:00,47.7,33.0,30.05,NE,34,0.0,1.0,58,0.00,,,0.00,weatherlink.com 1.10,2013-05-15 00:18:00,
2013-05-14 20:33:00,45.9,33.0,30.05,NE,34,0.0,0.0,60,0.00,,,0.00,weatherlink.com 1.10,2013-05-15 00:33:00,
2013-05-14 20:48:00,45.0,33.0,30.05,NE,34,0.0,0.0,62,0.00,,,0.00,weatherlink.com 1.10,2013-05-15 00:48:00,
2013-05-14 21:18:00,42.2,33.0,30.06,NE,34,0.0,0.0,70,0.00,,,0.00,weatherlink.com 1.10,2013-05-15 01:18:00,
2013-05-14 21:33:00,41.5,33.0,30.07,NE,34,0.0,0.0,71,0.00,,,0.00,weatherlink.com 1.10,2013-05-15 01:33:00,
2013-05-14 21:48:00,40.8,32.0,30.07,NE,34,0.0,0.0,72,0.00,,,0.00,weatherlink.com 1.10,2013-05-15 01:48:00,
2013-05-14 22:03:00,40.2,33.0,30.07,NE,34,0.0,0.0,74,0.00,,,0.00,weatherlink.com 1.10,2013-05-15 02:03:00,
2013-05-14 22:18:00,39.6,33.0,30.07,NE,34,0.0,0.0,76,0.00,,,0.00,weatherlink.com 1.10,2013-05-15 02:18:00,
2013-05-14 22:33:00,39.0,32.0,30.07,NE,34,0.0,0.0,77,0.00,,,0.00,weatherlink.com 1.10,2013-05-15 02:33:00,
2013-05-14 22:48:00,38.3,32.0,30.08,NE,34,0.0,0.0,79,0.00,,,0.00,weatherlink.com 1.10,2013-05-15 02:48:00,
2013-05-14 23:03:00,37.7,32.0,30.08,NE,34,0.0,0.0,80,0.00,,,0.00,weatherlink.com 1.10,2013-05-15 03:03:00,
2013-05-14 23:19:00,37.4,32.0,30.08,NE,34,0.0,0.0,81,0.00,,,0.00,weatherlink.com 1.10,2013-05-15 03:19:00,
2013-05-14 23:34:00,37.3,32.0,30.08,NE,34,0.0,0.0,81,0.00,,,0.00,weatherlink.com 1.10,2013-05-15 03:34:00,
2013-05-14 23:49:00,37.4,32.0,30.07,NE,34,0.0,1.0,82,0.00,,,0.00,weatherlink.com 1.10,2013-05-15 03:49:00,